Private Wetterstation Wechselburg
Wetterdaten: Woche 18.03.13 - 24.03.13 (KW12)
Datum Zeit Temp. +2m Bodentemp. Temp.+5cm Temp. Wind Windchill X Diff Temp. Feuchte +2m Feuchte +5cm Sonnenschein Luftdruck Regen Wind Richtung Sonnenschein UV Taupunkt Windchill Windben
18.03.2013 00:00 1,7 C 7,4 C 1,1 C 1,6 C 1,5 C 0,0 C 63 % 72 % 0 % 1004,1 hPa 0,0 l/m 1,5 km/h (1 Bft) O 0,00 h 0,0 UV-I -4,6 C 1,5 C 2,2 km/h (1 Bft)
18.03.2013 01:00 1,4 C 7,4 C 0,9 C 1,4 C 1,3 C 0,0 C 66 % 73 % 0 % 1004,0 hPa 0,0 l/m 1,7 km/h (1 Bft) O-SO 0,00 h 0,0 UV-I -4,3 C 1,3 C 2,9 km/h (1 Bft)
18.03.2013 02:00 0,7 C 7,5 C 0,5 C 0,3 C -0,4 C 0,0 C 73 % 77 % 0 % 1003,4 hPa 0,0 l/m 4,0 km/h (1 Bft) O 0,00 h 0,0 UV-I -3,6 C -1,1 C 6,7 km/h (2 Bft)
18.03.2013 03:00 -0,2 C 7,7 C -0,0 C -0,6 C -1,5 C 0,0 C 80 % 82 % 0 % 1002,8 hPa 0,0 l/m 4,3 km/h (1 Bft) O-SO 0,00 h 0,0 UV-I -3,3 C -2,3 C 6,7 km/h (2 Bft)
18.03.2013 04:00 0,5 C 7,4 C 0,3 C 0,4 C 0,1 C 0,0 C 75 % 80 % 0 % 1001,6 hPa 0,0 l/m 2,9 km/h (1 Bft) O 0,00 h 0,0 UV-I -3,4 C 0,1 C 3,7 km/h (1 Bft)
18.03.2013 05:00 0,5 C 7,7 C 0,3 C 0,0 C -0,8 C 0,0 C 77 % 82 % 0 % 1001,2 hPa 0,0 l/m 2,8 km/h (1 Bft) NO 0,00 h 0,0 UV-I -3,2 C -0,8 C 3,2 km/h (1 Bft)
18.03.2013 06:00 0,5 C 7,6 C 0,3 C 0,1 C -0,5 C 0,0 C 77 % 82 % 0 % 1001,0 hPa 0,0 l/m 1,1 km/h (1 Bft) NO 0,00 h 0,0 UV-I -3,2 C -0,5 C 1,7 km/h (1 Bft)
18.03.2013 07:00 0,7 C 7,5 C 0,7 C 0,6 C 0,3 C 0,1 C 76 % 81 % 1 % 1001,2 hPa 0,0 l/m 1,0 km/h (0 Bft) N-NO 0,00 h 0,0 UV-I -3,1 C 0,3 C 1,9 km/h (1 Bft)
18.03.2013 08:00 1,0 C 7,5 C 1,7 C 2,2 C 2,2 C 1,3 C 76 % 79 % 34 % 1000,7 hPa 0,0 l/m 2,2 km/h (1 Bft) O-SO 0,00 h 0,0 UV-I -2,8 C 2,2 C 3,3 km/h (1 Bft)
18.03.2013 09:00 1,2 C 7,5 C 2,2 C 3,3 C 3,3 C 2,0 C 77 % 78 % 53 % 1000,4 hPa 0,0 l/m 1,8 km/h (1 Bft) O-SO 0,00 h 0,1 UV-I -2,4 C 3,3 C 2,9 km/h (1 Bft)
18.03.2013 10:00 1,6 C 7,6 C 2,3 C 3,4 C 3,4 C 1,8 C 76 % 78 % 47 % 999,9 hPa 0,7 l/m 1,1 km/h (1 Bft) O-NO 0,00 h 0,2 UV-I -2,1 C 3,4 C 1,9 km/h (1 Bft)
18.03.2013 11:00 0,7 C 7,9 C 1,9 C 2,4 C 2,4 C 1,7 C 82 % 86 % 45 % 999,7 hPa 0,0 l/m 2,0 km/h (1 Bft) O-NO 0,00 h 0,3 UV-I -2,1 C 2,3 C 2,4 km/h (1 Bft)
18.03.2013 12:00 -0,1 C 7,9 C 1,8 C 0,6 C 0,6 C 0,7 C 84 % 88 % 18 % 998,9 hPa 0,7 l/m 4,8 km/h (1 Bft) O-NO 0,00 h 0,4 UV-I -2,4 C -0,8 C 5,7 km/h (1 Bft)
18.03.2013 13:00 1,6 C 7,6 C 2,3 C 2,4 C 2,3 C 0,8 C 78 % 87 % 22 % 998,2 hPa 0,7 l/m 4,2 km/h (1 Bft) O-NO 0,00 h 0,2 UV-I -1,8 C 1,9 C 4,6 km/h (1 Bft)
18.03.2013 14:00 1,8 C 7,6 C 2,5 C 2,1 C 1,9 C 0,4 C 77 % 86 % 9 % 997,6 hPa 0,0 l/m 6,1 km/h (2 Bft) O-NO 0,00 h 0,2 UV-I -1,7 C 0,2 C 6,5 km/h (2 Bft)
18.03.2013 15:00 1,8 C 7,6 C 2,3 C 2,0 C 1,8 C 0,3 C 78 % 87 % 7 % 996,9 hPa 0,0 l/m 5,2 km/h (1 Bft) O-NO 0,00 h 0,1 UV-I -1,6 C 0,4 C 5,5 km/h (1 Bft)
18.03.2013 16:00 2,0 C 7,6 C 2,2 C 2,4 C 2,3 C 0,3 C 78 % 87 % 9 % 996,7 hPa 0,0 l/m 3,0 km/h (1 Bft) O-NO 0,00 h 0,0 UV-I -1,4 C 2,3 C 3,4 km/h (1 Bft)
18.03.2013 17:00 1,4 C 7,8 C 1,6 C 1,7 C 1,7 C 0,3 C 81 % 88 % 8 % 996,0 hPa 0,0 l/m 1,4 km/h (1 Bft) N-NW 0,00 h 0,0 UV-I -1,5 C 1,7 C 2,7 km/h (1 Bft)
18.03.2013 18:00 1,1 C 7,8 C 1,3 C 1,4 C 1,4 C 0,3 C 82 % 88 % 2 % 995,9 hPa 0,0 l/m 1,1 km/h (1 Bft) O-NO 0,08 h 0,0 UV-I -1,6 C 1,4 C 0,5 km/h (0 Bft)
18.03.2013 19:00 0,0 C 8,0 C 0,7 C 0,3 C 0,3 C 0,3 C 86 % 89 % 0 % 996,0 hPa 0,0 l/m 1,3 km/h (1 Bft) N-NO 0,00 h 0,0 UV-I -2,1 C 0,3 C 2,8 km/h (1 Bft)
18.03.2013 20:00 -0,4 C 8,0 C 0,5 C 0,3 C 0,3 C 0,7 C 88 % 90 % 0 % 995,9 hPa 0,0 l/m 1,6 km/h (1 Bft) N-NW 0,00 h 0,0 UV-I -2,2 C 0,3 C 2,5 km/h (1 Bft)
18.03.2013 21:00 -0,5 C 7,8 C 0,5 C 0,2 C 0,2 C 0,7 C 88 % 91 % 0 % 995,2 hPa 0,0 l/m 0,6 km/h (0 Bft) N 0,00 h 0,0 UV-I -2,3 C 0,2 C 1,5 km/h (1 Bft)
18.03.2013 22:00 -0,9 C 7,9 C 0,2 C -0,0 C -0,0 C 0,9 C 89 % 91 % 0 % 995,1 hPa 0,7 l/m 1,6 km/h (1 Bft) N-NW 0,00 h 0,0 UV-I -2,5 C -0,0 C 1,7 km/h (1 Bft)
18.03.2013 23:00 -1,5 C 7,9 C -0,3 C -0,9 C -0,9 C 0,6 C 89 % 91 % 0 % 994,8 hPa 0,7 l/m 2,3 km/h (1 Bft) N-NW 0,00 h 0,0 UV-I -3,1 C -0,9 C 3,5 km/h (1 Bft)
19.03.2013 00:00 -1,9 C 7,9 C -0,6 C -1,3 C -1,3 C 0,6 C 89 % 91 % 0 % 994,9 hPa 1,4 l/m 1,6 km/h (1 Bft) N-NW 0,00 h 0,0 UV-I -3,4 C -1,3 C 3,0 km/h (1 Bft)
19.03.2013 01:00 -2,3 C 7,9 C -0,9 C -1,7 C -1,7 C 0,6 C 89 % 92 % 0 % 994,5 hPa 0,0 l/m 1,4 km/h (1 Bft) N-NW 0,00 h 0,0 UV-I -3,9 C -1,7 C 3,2 km/h (1 Bft)
19.03.2013 02:00 -2,6 C 7,9 C -1,2 C -2,2 C -2,3 C 0,4 C 89 % 92 % 0 % 994,6 hPa 0,7 l/m 2,6 km/h (1 Bft) N-NW 0,00 h 0,0 UV-I -4,2 C -2,3 C 3,5 km/h (1 Bft)
19.03.2013 03:00 -2,9 C 7,9 C -1,6 C -2,9 C -3,2 C 0,1 C 89 % 91 % 0 % 994,9 hPa 0,7 l/m 3,5 km/h (1 Bft) N-NW 0,00 h 0,0 UV-I -4,5 C -3,4 C 5,3 km/h (1 Bft)
19.03.2013 04:00 -3,0 C 7,9 C -1,7 C -3,4 C -4,2 C 0,0 C 89 % 91 % 0 % 995,2 hPa 0,7 l/m 4,8 km/h (1 Bft) N-NW 0,00 h 0,0 UV-I -4,6 C -5,7 C 7,4 km/h (2 Bft)
19.03.2013 05:00 -3,2 C 7,9 C -1,9 C -3,8 C -4,8 C 0,0 C 89 % 91 % 0 % 995,5 hPa 1,4 l/m 5,6 km/h (1 Bft) N-NW 0,00 h 0,0 UV-I -4,8 C -7,4 C 7,3 km/h (2 Bft)
19.03.2013 06:00 -3,3 C 7,9 C -2,0 C -4,0 C -5,3 C 0,0 C 89 % 91 % 0 % 996,0 hPa 0,0 l/m 6,4 km/h (2 Bft) N-NW 0,00 h 0,0 UV-I -4,8 C -8,3 C 9,6 km/h (2 Bft)
19.03.2013 07:00 -3,3 C 7,9 C -1,5 C -3,8 C -4,9 C 0,0 C 89 % 91 % 0 % 996,4 hPa 0,0 l/m 6,5 km/h (2 Bft) N-NW 0,00 h 0,0 UV-I -4,8 C -7,9 C 8,4 km/h (2 Bft)
19.03.2013 08:00 -3,0 C 7,9 C -0,9 C -3,4 C -4,0 C 0,0 C 89 % 90 % 0 % 997,2 hPa 0,7 l/m 6,0 km/h (2 Bft) N-NW 0,00 h 0,0 UV-I -4,6 C -6,6 C 6,5 km/h (2 Bft)
19.03.2013 09:00 -2,7 C 7,9 C -0,8 C -3,1 C -3,9 C 0,0 C 88 % 89 % 0 % 997,9 hPa 0,7 l/m 6,1 km/h (2 Bft) N-NW 0,00 h 0,0 UV-I -4,4 C -6,6 C 7,1 km/h (2 Bft)
19.03.2013 10:00 -2,3 C 7,8 C 0,0 C -2,5 C -3,0 C 0,0 C 87 % 88 % 0 % 998,6 hPa 0,0 l/m 5,8 km/h (1 Bft) N-NW 0,00 h 0,0 UV-I -4,2 C -5,4 C 7,8 km/h (2 Bft)
19.03.2013 11:00 -1,7 C 7,8 C 0,9 C -1,9 C -2,3 C 0,0 C 85 % 87 % 0 % 999,1 hPa 0,0 l/m 6,4 km/h (2 Bft) N-NW 0,00 h 0,0 UV-I -3,9 C -4,8 C 7,9 km/h (2 Bft)
19.03.2013 12:00 -1,1 C 7,7 C 1,9 C -0,7 C -0,7 C 0,4 C 85 % 85 % 10 % 999,7 hPa 0,7 l/m 5,6 km/h (1 Bft) W-SW 0,00 h 0,0 UV-I -3,3 C -2,7 C 6,5 km/h (2 Bft)
19.03.2013 13:00 -0,2 C 7,7 C 3,1 C 1,2 C 1,2 C 1,4 C 84 % 83 % 37 % 999,9 hPa 0,0 l/m 5,5 km/h (1 Bft) W-SW 0,00 h 0,0 UV-I -2,6 C -0,5 C 7,2 km/h (2 Bft)
19.03.2013 14:00 0,4 C 7,7 C 3,0 C 1,8 C 1,8 C 1,4 C 83 % 82 % 36 % 1000,1 hPa 0,0 l/m 5,9 km/h (2 Bft) W-SW 0,00 h 0,0 UV-I -2,1 C 0,3 C 7,0 km/h (2 Bft)
19.03.2013 15:00 0,2 C 7,9 C 2,4 C 1,0 C 1,0 C 0,7 C 86 % 87 % 20 % 1000,6 hPa 0,0 l/m 5,5 km/h (1 Bft) SW 0,00 h 0,1 UV-I -1,9 C -0,4 C 6,7 km/h (2 Bft)
19.03.2013 16:00 -0,1 C 8,0 C 1,6 C 0,2 C 0,1 C 0,4 C 88 % 90 % 11 % 1000,7 hPa 0,0 l/m 4,7 km/h (1 Bft) SW 0,00 h 0,0 UV-I -1,9 C -0,9 C 5,7 km/h (1 Bft)
19.03.2013 17:00 -0,2 C 8,0 C 0,9 C 0,3 C 0,3 C 0,5 C 88 % 91 % 13 % 1001,1 hPa 0,7 l/m 3,0 km/h (1 Bft) W-SW 0,30 h 0,0 UV-I -1,9 C 0,3 C 3,4 km/h (1 Bft)
19.03.2013 18:00 -0,5 C 7,8 C 0,5 C 0,3 C 0,3 C 0,8 C 88 % 91 % 5 % 1001,9 hPa 0,0 l/m 0,9 km/h (0 Bft) W-SW 0,20 h 0,0 UV-I -2,2 C 0,3 C 1,2 km/h (1 Bft)
19.03.2013 19:00 -1,0 C 7,9 C 0,1 C -0,5 C -0,5 C 0,5 C 88 % 92 % 0 % 1002,2 hPa 0,0 l/m 0,2 km/h (0 Bft) N 0,00 h 0,0 UV-I -2,7 C -0,5 C 0,1 km/h (0 Bft)
19.03.2013 20:00 -1,2 C 7,9 C -0,1 C -0,8 C -0,8 C 0,5 C 88 % 92 % 0 % 1002,5 hPa 0,7 l/m 0,3 km/h (0 Bft) W-SW 0,00 h 0,0 UV-I -3,0 C -0,8 C 0,8 km/h (0 Bft)
19.03.2013 21:00 -1,6 C 7,9 C -0,4 C -1,1 C -1,1 C 0,5 C 88 % 92 % 0 % 1002,9 hPa 0,0 l/m 0,3 km/h (0 Bft) N 0,00 h 0,0 UV-I -3,3 C -1,1 C 0,5 km/h (0 Bft)
19.03.2013 22:00 -1,7 C 7,9 C -0,5 C -1,1 C -1,1 C 0,6 C 89 % 92 % 0 % 1003,2 hPa 0,7 l/m 0,0 km/h (0 Bft) N 0,00 h 0,0 UV-I -3,3 C -1,1 C 0,0 km/h (0 Bft)
19.03.2013 23:00 -1,7 C 7,9 C -0,5 C -1,0 C -1,0 C 0,7 C 89 % 92 % 0 % 1003,4 hPa 0,0 l/m 0,1 km/h (0 Bft) N 0,00 h 0,0 UV-I -3,3 C -1,0 C 0,0 km/h (0 Bft)
20.03.2013 00:00 -1,7 C 7,9 C -0,5 C -1,0 C -1,0 C 0,7 C 89 % 92 % 0 % 1003,6 hPa 0,0 l/m 0,1 km/h (0 Bft) N 0,00 h 0,0 UV-I -3,3 C -1,0 C 0,0 km/h (0 Bft)
20.03.2013 01:00 -1,7 C 7,9 C -0,5 C -1,0 C -1,0 C 0,7 C 89 % 92 % 0 % 1004,3 hPa 0,0 l/m 0,0 km/h (0 Bft) N 0,00 h 0,0 UV-I -3,3 C -1,0 C 0,2 km/h (0 Bft)
20.03.2013 02:00 -1,7 C 7,9 C -0,5 C -1,0 C -1,0 C 0,7 C 89 % 92 % 0 % 1004,5 hPa 0,0 l/m 0,0 km/h (0 Bft) N 0,00 h 0,0 UV-I -3,3 C -1,0 C 0,0 km/h (0 Bft)
20.03.2013 03:00 -1,7 C 7,9 C -0,5 C -1,0 C -1,0 C 0,7 C 89 % 92 % 0 % 1004,6 hPa 0,0 l/m 0,2 km/h (0 Bft) N 0,00 h 0,0 UV-I -3,3 C -1,0 C 0,7 km/h (0 Bft)
20.03.2013 04:00 -1,7 C 7,9 C -0,7 C -1,1 C -1,1 C 0,6 C 88 % 92 % 0 % 1004,8 hPa 0,0 l/m 0,2 km/h (0 Bft) N 0,00 h 0,0 UV-I -3,4 C -1,1 C 0,4 km/h (0 Bft)
20.03.2013 05:00 -1,8 C 7,9 C -0,8 C -1,3 C -1,3 C 0,5 C 88 % 92 % 0 % 1005,0 hPa 0,0 l/m 0,0 km/h (0 Bft) N 0,00 h 0,0 UV-I -3,6 C -1,3 C 0,0 km/h (0 Bft)
20.03.2013 06:00 -1,9 C 7,9 C -0,9 C -1,3 C -1,3 C 0,6 C 88 % 92 % 7 % 1005,6 hPa 0,0 l/m 0,0 km/h (0 Bft) N 0,25 h 0,0 UV-I -3,7 C -1,3 C 0,0 km/h (0 Bft)
20.03.2013 07:00 -1,8 C 7,9 C -0,5 C -0,7 C -0,7 C 1,1 C 87 % 92 % 29 % 1006,2 hPa 0,0 l/m 0,2 km/h (0 Bft) N 0,00 h 0,0 UV-I -3,6 C -0,7 C 0,7 km/h (0 Bft)
20.03.2013 08:00 -1,0 C 7,8 C 0,3 C 0,9 C 0,9 C 1,9 C 85 % 92 % 50 % 1006,5 hPa 0,0 l/m 0,5 km/h (0 Bft) O-NO 0,00 h 0,0 UV-I -3,2 C 0,9 C 0,9 km/h (0 Bft)
20.03.2013 09:00 -0,5 C 7,7 C 1,4 C 2,3 C 2,3 C 2,8 C 83 % 89 % 73 % 1006,7 hPa 0,0 l/m 2,2 km/h (1 Bft) O-NO 0,17 h 0,0 UV-I -3,1 C 2,3 C 2,9 km/h (1 Bft)
20.03.2013 10:00 0,5 C 7,6 C 2,5 C 4,6 C 4,6 C 4,2 C 80 % 87 % 100 % 1006,7 hPa 0,0 l/m 1,6 km/h (1 Bft) O-NO 1,00 h 0,2 UV-I -2,6 C 4,6 C 2,4 km/h (1 Bft)
20.03.2013 11:00 1,0 C 7,6 C 3,4 C 5,5 C 5,5 C 4,5 C 79 % 84 % 100 % 1006,6 hPa 0,0 l/m 3,1 km/h (1 Bft) O-NO 1,00 h 0,9 UV-I -2,3 C 5,5 C 4,5 km/h (1 Bft)
20.03.2013 12:00 1,6 C 7,6 C 4,2 C 6,0 C 6,0 C 4,4 C 78 % 82 % 99 % 1006,9 hPa 0,0 l/m 4,6 km/h (1 Bft) O-NO 0,77 h 1,4 UV-I -1,8 C 5,4 C 5,9 km/h (2 Bft)
20.03.2013 13:00 2,6 C 7,6 C 5,0 C 8,0 C 8,0 C 5,4 C 78 % 79 % 100 % 1006,4 hPa 0,0 l/m 4,7 km/h (1 Bft) O-NO 1,23 h 1,5 UV-I -0,8 C 7,7 C 6,3 km/h (2 Bft)
20.03.2013 14:00 3,4 C 7,6 C 4,4 C 7,9 C 7,9 C 4,5 C 77 % 80 % 98 % 1005,9 hPa 0,0 l/m 4,4 km/h (1 Bft) O-NO 0,92 h 1,0 UV-I -0,3 C 7,8 C 5,2 km/h (1 Bft)
20.03.2013 15:00 3,4 C 7,6 C 3,8 C 4,9 C 4,9 C 1,5 C 77 % 80 % 39 % 1005,6 hPa 0,0 l/m 4,6 km/h (1 Bft) O-NO 0,08 h 0,3 UV-I -0,2 C 4,5 C 5,3 km/h (1 Bft)
20.03.2013 16:00 2,5 C 7,8 C 2,7 C 2,6 C 2,6 C 0,1 C 80 % 83 % 3 % 1005,5 hPa 0,7 l/m 4,0 km/h (1 Bft) O-NO 0,00 h 0,0 UV-I -0,7 C 2,6 C 4,5 km/h (1 Bft)
20.03.2013 17:00 1,6 C 8,0 C 1,9 C 1,7 C 1,7 C 0,1 C 83 % 86 % 3 % 1006,2 hPa 0,7 l/m 1,8 km/h (1 Bft) O-NO 0,00 h 0,0 UV-I -0,9 C 1,7 C 2,2 km/h (1 Bft)
20.03.2013 18:00 1,0 C 8,1 C 1,5 C 1,4 C 1,4 C 0,4 C 86 % 89 % 3 % 1006,9 hPa 0,7 l/m 1,8 km/h (1 Bft) O-NO 0,08 h 0,0 UV-I -1,1 C 1,4 C 2,4 km/h (1 Bft)
20.03.2013 19:00 0,7 C 8,1 C 1,2 C 1,1 C 1,1 C 0,3 C 88 % 91 % 0 % 1007,3 hPa 0,0 l/m 0,1 km/h (0 Bft) N 0,00 h 0,0 UV-I -1,1 C 1,1 C 0,0 km/h (0 Bft)
20.03.2013 20:00 0,1 C 8,1 C 0,5 C 0,2 C 0,2 C 0,1 C 88 % 91 % 0 % 1008,0 hPa 0,0 l/m 0,1 km/h (0 Bft) N 0,00 h 0,0 UV-I -1,6 C 0,2 C 0,1 km/h (0 Bft)
20.03.2013 21:00 -0,5 C 8,1 C -0,1 C -0,5 C -0,6 C 0,0 C 88 % 92 % 0 % 1008,8 hPa 0,0 l/m 0,0 km/h (0 Bft) N 0,00 h 0,0 UV-I -2,2 C -0,6 C 0,0 km/h (0 Bft)
20.03.2013 22:00 -1,4 C 8,1 C -0,6 C -1,3 C -1,4 C 0,1 C 88 % 92 % 0 % 1009,1 hPa 0,0 l/m 0,1 km/h (0 Bft) N 0,00 h 0,0 UV-I -3,0 C -1,4 C 0,2 km/h (0 Bft)
20.03.2013 23:00 -1,6 C 8,0 C -0,5 C -1,0 C -1,0 C 0,6 C 90 % 93 % 0 % 1009,3 hPa 0,0 l/m 0,0 km/h (0 Bft) N 0,00 h 0,0 UV-I -3,0 C -1,0 C 0,0 km/h (0 Bft)
21.03.2013 00:00 -1,2 C 8,0 C -0,1 C -0,6 C -0,6 C 0,7 C 90 % 93 % 0 % 1009,7 hPa 0,0 l/m 0,0 km/h (0 Bft) N 0,00 h 0,0 UV-I -2,7 C -0,6 C 0,0 km/h (0 Bft)
21.03.2013 01:00 -1,3 C 8,0 C -0,2 C -0,7 C -0,7 C 0,6 C 90 % 93 % 0 % 1009,8 hPa 0,0 l/m 0,0 km/h (0 Bft) N 0,00 h 0,0 UV-I -2,7 C -0,7 C 0,4 km/h (0 Bft)
21.03.2013 02:00 -1,0 C 8,0 C 0,1 C -0,1 C -0,1 C 0,8 C 90 % 93 % 0 % 1009,9 hPa 0,0 l/m 0,3 km/h (0 Bft) N 0,00 h 0,0 UV-I -2,4 C -0,1 C 0,7 km/h (0 Bft)
21.03.2013 03:00 -0,8 C 8,0 C 0,3 C -0,4 C -0,6 C 0,5 C 91 % 93 % 0 % 1010,3 hPa 0,0 l/m 2,7 km/h (1 Bft) S 0,00 h 0,0 UV-I -2,1 C -1,0 C 5,2 km/h (1 Bft)
21.03.2013 04:00 -1,2 C 8,0 C -0,0 C -1,1 C -1,2 C 0,2 C 91 % 93 % 0 % 1011,3 hPa 0,0 l/m 3,5 km/h (1 Bft) S 0,00 h 0,0 UV-I -2,5 C -1,5 C 5,8 km/h (2 Bft)
21.03.2013 05:00 -2,3 C 8,0 C -1,0 C -2,7 C -3,5 C 0,0 C 91 % 93 % 0 % 1012,3 hPa 0,0 l/m 5,1 km/h (1 Bft) S 0,00 h 0,0 UV-I -3,6 C -5,6 C 8,6 km/h (2 Bft)
21.03.2013 06:00 -2,6 C 7,9 C -1,3 C -3,0 C -3,7 C 0,0 C 91 % 93 % 0 % 1013,6 hPa 0,0 l/m 4,9 km/h (1 Bft) S 0,00 h 0,0 UV-I -3,9 C -5,1 C 7,2 km/h (2 Bft)
21.03.2013 07:00 -2,9 C 7,9 C -1,3 C -3,4 C -4,3 C 0,0 C 91 % 93 % 0 % 1014,8 hPa 0,0 l/m 6,0 km/h (2 Bft) S 0,00 h 0,0 UV-I -4,1 C -6,8 C 9,6 km/h (2 Bft)
21.03.2013 08:00 -2,6 C 7,9 C -0,4 C -2,5 C -2,8 C 0,2 C 91 % 93 % 5 % 1015,5 hPa 0,0 l/m 5,4 km/h (1 Bft) S 0,00 h 0,0 UV-I -3,9 C -4,8 C 6,9 km/h (2 Bft)
21.03.2013 09:00 -2,1 C 7,9 C 1,2 C -0,5 C -0,5 C 1,6 C 91 % 91 % 41 % 1016,3 hPa 0,0 l/m 5,8 km/h (2 Bft) S 0,00 h 0,1 UV-I -3,4 C -2,5 C 7,4 km/h (2 Bft)
21.03.2013 10:00 -1,9 C 7,8 C 1,6 C -0,0 C -0,0 C 1,9 C 90 % 90 % 49 % 1016,6 hPa 0,0 l/m 5,8 km/h (2 Bft) W-SW 0,00 h 0,6 UV-I -3,4 C -2,0 C 7,0 km/h (2 Bft)
21.03.2013 11:00 -1,3 C 7,7 C 2,6 C 1,4 C 1,4 C 2,7 C 87 % 88 % 70 % 1016,6 hPa 1,4 l/m 6,2 km/h (2 Bft) W-SW 0,25 h 1,1 UV-I -3,2 C -0,5 C 8,0 km/h (2 Bft)
21.03.2013 12:00 -0,9 C 7,7 C 2,4 C 2,3 C 2,3 C 3,2 C 86 % 88 % 85 % 1017,2 hPa 0,0 l/m 3,7 km/h (1 Bft) SW 0,25 h 0,7 UV-I -2,9 C 2,1 C 3,9 km/h (1 Bft)
21.03.2013 13:00 -0,2 C 7,7 C 3,2 C 3,2 C 3,2 C 3,4 C 84 % 88 % 88 % 1017,6 hPa 0,0 l/m 5,5 km/h (1 Bft) W-SW 0,67 h 1,1 UV-I -2,6 C 2,0 C 6,1 km/h (2 Bft)
21.03.2013 14:00 0,1 C 7,6 C 2,4 C 1,7 C 1,7 C 1,6 C 82 % 88 % 43 % 1018,0 hPa 0,0 l/m 5,6 km/h (1 Bft) SW 0,08 h 0,6 UV-I -2,7 C 0,4 C 6,6 km/h (2 Bft)
21.03.2013 15:00 -0,1 C 7,7 C 1,5 C 0,8 C 0,8 C 1,0 C 82 % 89 % 25 % 1017,8 hPa 0,0 l/m 4,1 km/h (1 Bft) W-SW 0,00 h 0,1 UV-I -2,8 C 0,1 C 5,2 km/h (1 Bft)
21.03.2013 16:00 -0,2 C 7,7 C 1,0 C 1,0 C 1,0 C 1,3 C 83 % 90 % 34 % 1018,2 hPa 0,0 l/m 2,4 km/h (1 Bft) W 0,00 h 0,0 UV-I -2,8 C 1,0 C 3,4 km/h (1 Bft)
21.03.2013 17:00 -1,2 C 7,9 C 0,1 C -0,9 C -0,9 C 0,3 C 86 % 91 % 8 % 1018,6 hPa 0,0 l/m 3,0 km/h (1 Bft) W-SW 0,00 h 0,0 UV-I -3,3 C -0,9 C 3,8 km/h (1 Bft)
21.03.2013 18:00 -1,7 C 7,9 C -0,7 C -1,4 C -1,4 C 0,2 C 86 % 91 % 3 % 1019,0 hPa 0,0 l/m 1,1 km/h (0 Bft) W-SW 0,00 h 0,0 UV-I -3,7 C -1,4 C 1,4 km/h (1 Bft)
21.03.2013 19:00 -2,4 C 8,0 C -2,1 C -2,6 C -3,1 C 0,0 C 87 % 91 % 0 % 1019,4 hPa 0,0 l/m 0,3 km/h (0 Bft) W-SW 0,00 h 0,0 UV-I -4,3 C -3,1 C 0,2 km/h (0 Bft)
21.03.2013 20:00 -3,5 C 7,9 C -3,1 C -3,7 C -4,2 C 0,0 C 87 % 92 % 0 % 1019,3 hPa 0,0 l/m 0,0 km/h (0 Bft) N 0,00 h 0,0 UV-I -5,3 C -4,2 C 0,0 km/h (0 Bft)
21.03.2013 21:00 -4,4 C 7,9 C -4,0 C -4,6 C -4,9 C 0,0 C 88 % 91 % 0 % 1019,7 hPa 0,0 l/m 0,0 km/h (0 Bft) N 0,00 h 0,0 UV-I -6,1 C -4,9 C 0,0 km/h (0 Bft)
21.03.2013 22:00 -4,4 C 7,9 C -3,1 C -3,9 C -3,9 C 0,6 C 89 % 92 % 0 % 1020,0 hPa 0,0 l/m 0,0 km/h (0 Bft) N 0,00 h 0,0 UV-I -6,0 C -3,9 C 0,0 km/h (0 Bft)
21.03.2013 23:00 -3,8 C 7,9 C -2,3 C -3,1 C -3,1 C 0,7 C 89 % 92 % 0 % 1020,0 hPa 0,0 l/m 0,0 km/h (0 Bft) N 0,00 h 0,0 UV-I -5,3 C -3,1 C 0,0 km/h (0 Bft)
22.03.2013 00:00 -3,3 C 7,9 C -1,8 C -2,6 C -2,6 C 0,7 C 90 % 92 % 0 % 1020,2 hPa 0,0 l/m 0,3 km/h (0 Bft) N 0,00 h 0,0 UV-I -4,7 C -2,6 C 0,2 km/h (0 Bft)
22.03.2013 01:00 -2,9 C 7,8 C -1,7 C -2,6 C -2,6 C 0,3 C 89 % 92 % 0 % 1020,5 hPa 0,0 l/m 0,3 km/h (0 Bft) N 0,00 h 0,0 UV-I -4,5 C -2,6 C 0,3 km/h (0 Bft)
22.03.2013 02:00 -2,9 C 7,7 C -1,7 C -2,7 C -2,7 C 0,1 C 88 % 92 % 0 % 1020,5 hPa 0,0 l/m 0,3 km/h (0 Bft) N 0,00 h 0,0 UV-I -4,6 C -2,7 C 0,8 km/h (0 Bft)
22.03.2013 03:00 -2,5 C 7,7 C -1,7 C -2,4 C -2,4 C 0,1 C 85 % 91 % 0 % 1020,4 hPa 0,0 l/m 0,3 km/h (0 Bft) N 0,00 h 0,0 UV-I -4,6 C -2,4 C 0,6 km/h (0 Bft)
22.03.2013 04:00 -2,6 C 7,8 C -1,8 C -2,4 C -2,4 C 0,1 C 86 % 91 % 0 % 1020,6 hPa 0,0 l/m 0,9 km/h (0 Bft) N-NO 0,00 h 0,0 UV-I -4,6 C -2,4 C 1,3 km/h (1 Bft)
22.03.2013 05:00 -2,9 C 7,7 C -2,1 C -2,8 C -2,9 C 0,0 C 85 % 91 % 0 % 1020,3 hPa 0,0 l/m 0,7 km/h (0 Bft) W-SW 0,00 h 0,0 UV-I -5,0 C -2,9 C 1,4 km/h (1 Bft)
22.03.2013 06:00 -3,1 C 7,7 C -2,5 C -3,1 C -3,1 C 0,1 C 84 % 91 % 2 % 1020,7 hPa 0,0 l/m 0,9 km/h (0 Bft) NW 0,00 h 0,0 UV-I -5,4 C -3,1 C 1,4 km/h (1 Bft)
22.03.2013 07:00 -3,0 C 7,6 C -2,0 C -2,2 C -2,2 C 0,8 C 84 % 90 % 21 % 1021,1 hPa 0,0 l/m 0,9 km/h (0 Bft) NW 0,00 h 0,0 UV-I -5,3 C -2,2 C 1,7 km/h (1 Bft)
22.03.2013 08:00 -2,6 C 7,6 C -1,3 C -1,7 C -1,7 C 0,9 C 83 % 90 % 24 % 1021,8 hPa 0,0 l/m 2,2 km/h (1 Bft) N-NW 0,00 h 0,0 UV-I -5,1 C -1,7 C 4,3 km/h (1 Bft)
22.03.2013 09:00 -3,3 C 7,6 C -1,7 C -2,8 C -2,9 C 0,5 C 83 % 88 % 14 % 1021,6 hPa 0,0 l/m 3,6 km/h (1 Bft) N 0,00 h 0,0 UV-I -5,7 C -3,8 C 4,7 km/h (1 Bft)
22.03.2013 10:00 -2,6 C 7,5 C -0,8 C -0,1 C -0,1 C 2,5 C 81 % 87 % 66 % 1021,7 hPa 0,0 l/m 1,4 km/h (1 Bft) O 0,00 h 0,3 UV-I -5,3 C -0,1 C 1,5 km/h (1 Bft)
22.03.2013 11:00 -2,2 C 7,4 C -0,7 C -0,1 C -0,1 C 2,1 C 79 % 84 % 55 % 1021,5 hPa 0,0 l/m 2,1 km/h (1 Bft) O 0,00 h 0,4 UV-I -5,3 C -0,1 C 2,2 km/h (1 Bft)
22.03.2013 12:00 -2,0 C 7,4 C -0,6 C 0,1 C 0,1 C 2,1 C 79 % 84 % 54 % 1021,8 hPa 0,0 l/m 1,4 km/h (1 Bft) O-NO 0,00 h 0,4 UV-I -5,1 C 0,1 C 1,5 km/h (1 Bft)
22.03.2013 13:00 -1,2 C 7,5 C 0,4 C 1,8 C 1,8 C 3,0 C 77 % 84 % 79 % 1021,3 hPa 0,0 l/m 1,4 km/h (1 Bft) N-NO 0,33 h 0,6 UV-I -4,8 C 1,8 C 1,5 km/h (1 Bft)
22.03.2013 14:00 -1,3 C 7,4 C -0,0 C 0,7 C 0,7 C 2,0 C 76 % 83 % 52 % 1021,1 hPa 0,0 l/m 1,4 km/h (1 Bft) NO 0,00 h 0,2 UV-I -4,9 C 0,7 C 2,2 km/h (1 Bft)
22.03.2013 15:00 -1,3 C 7,5 C -0,5 C -0,5 C -0,5 C 0,8 C 79 % 84 % 22 % 1021,1 hPa 0,0 l/m 2,3 km/h (1 Bft) O-NO 0,00 h 0,1 UV-I -4,5 C -0,5 C 2,8 km/h (1 Bft)
22.03.2013 16:00 -1,6 C 7,5 C -1,1 C -1,5 C -2,0 C 0,4 C 81 % 84 % 11 % 1021,2 hPa 0,0 l/m 3,5 km/h (1 Bft) O-NO 0,00 h 0,0 UV-I -4,5 C -3,0 C 3,9 km/h (1 Bft)
22.03.2013 17:00 -2,0 C 7,6 C -1,7 C -2,4 C -3,3 C 0,0 C 81 % 84 % 0 % 1021,2 hPa 0,0 l/m 4,1 km/h (1 Bft) O-NO 0,00 h 0,0 UV-I -4,8 C -4,2 C 4,9 km/h (1 Bft)
22.03.2013 18:00 -2,1 C 7,6 C -2,1 C -2,4 C -2,9 C 0,0 C 81 % 85 % 0 % 1021,2 hPa 0,0 l/m 2,9 km/h (1 Bft) O-NO 0,00 h 0,0 UV-I -4,8 C -2,9 C 3,2 km/h (1 Bft)
22.03.2013 19:00 -2,6 C 7,6 C -2,6 C -3,0 C -4,0 C 0,0 C 83 % 86 % 0 % 1021,7 hPa 0,0 l/m 3,3 km/h (1 Bft) O-NO 0,00 h 0,0 UV-I -5,1 C -4,0 C 3,7 km/h (1 Bft)
22.03.2013 20:00 -2,8 C 7,7 C -2,8 C -3,4 C -4,6 C 0,0 C 86 % 88 % 0 % 1021,9 hPa 0,0 l/m 3,7 km/h (1 Bft) O-NO 0,00 h 0,0 UV-I -4,8 C -5,0 C 4,4 km/h (1 Bft)
22.03.2013 21:00 -2,7 C 7,7 C -2,5 C -3,3 C -4,5 C 0,0 C 87 % 88 % 0 % 1021,5 hPa 0,0 l/m 4,3 km/h (1 Bft) O-NO 0,00 h 0,0 UV-I -4,6 C -5,2 C 5,1 km/h (1 Bft)
22.03.2013 22:00 -2,9 C 7,6 C -2,6 C -3,6 C -5,2 C 0,0 C 86 % 87 % 0 % 1021,5 hPa 0,0 l/m 5,5 km/h (1 Bft) O-NO 0,00 h 0,0 UV-I -4,9 C -7,4 C 7,4 km/h (2 Bft)
22.03.2013 23:00 -3,5 C 7,6 C -3,3 C -4,6 C -6,7 C 0,0 C 84 % 86 % 0 % 1021,7 hPa 0,0 l/m 6,8 km/h (2 Bft) O-NO 0,00 h 0,0 UV-I -5,8 C -10,1 C 7,6 km/h (2 Bft)
23.03.2013 00:00 -3,8 C 7,6 C -3,7 C -4,8 C -6,7 C 0,0 C 84 % 86 % 0 % 1022,1 hPa 0,0 l/m 6,2 km/h (2 Bft) O-NO 0,00 h 0,0 UV-I -6,2 C -9,8 C 7,6 km/h (2 Bft)
23.03.2013 01:00 -4,5 C 7,5 C -4,4 C -5,4 C -7,3 C 0,0 C 84 % 86 % 0 % 1022,2 hPa 0,0 l/m 5,2 km/h (1 Bft) O-NO 0,00 h 0,0 UV-I -6,8 C -10,0 C 6,3 km/h (2 Bft)
23.03.2013 02:00 -4,6 C 7,5 C -4,5 C -5,7 C -7,8 C 0,0 C 84 % 86 % 0 % 1022,0 hPa 0,0 l/m 6,7 km/h (2 Bft) O-NO 0,00 h 0,0 UV-I -7,0 C -11,3 C 8,9 km/h (2 Bft)
23.03.2013 03:00 -4,5 C 7,5 C -4,4 C -5,4 C -7,4 C 0,0 C 83 % 85 % 0 % 1021,6 hPa 0,0 l/m 6,0 km/h (2 Bft) O-NO 0,00 h 0,0 UV-I -6,9 C -10,5 C 6,9 km/h (2 Bft)
23.03.2013 04:00 -4,8 C 7,4 C -4,5 C -5,7 C -8,3 C 0,0 C 79 % 83 % 0 % 1021,9 hPa 0,0 l/m 7,7 km/h (2 Bft) O-NO 0,00 h 0,0 UV-I -7,8 C -12,4 C 9,8 km/h (2 Bft)
23.03.2013 05:00 -6,0 C 7,3 C -5,7 C -7,2 C -10,0 C 0,0 C 78 % 81 % 0 % 1021,6 hPa 0,0 l/m 7,6 km/h (2 Bft) O-NO 0,00 h 0,0 UV-I -9,2 C -14,3 C 8,0 km/h (2 Bft)
23.03.2013 06:00 -7,0 C 7,4 C -6,6 C -8,1 C -10,2 C 0,0 C 78 % 81 % 0 % 1022,2 hPa 0,0 l/m 5,9 km/h (2 Bft) O-NO 0,00 h 0,0 UV-I -10,2 C -13,7 C 6,3 km/h (2 Bft)
23.03.2013 07:00 -7,3 C 7,4 C -6,7 C -7,0 C -7,5 C 0,4 C 77 % 80 % 10 % 1023,2 hPa 0,0 l/m 6,9 km/h (2 Bft) O-NO 0,00 h 0,0 UV-I -10,6 C -11,0 C 8,4 km/h (2 Bft)
23.03.2013 08:00 -7,2 C 7,3 C -6,3 C -6,3 C -7,0 C 0,9 C 76 % 78 % 25 % 1023,2 hPa 0,0 l/m 7,9 km/h (2 Bft) O-NO 0,00 h 0,2 UV-I -10,7 C -10,9 C 10,1 km/h (2 Bft)
23.03.2013 09:00 -6,8 C 7,3 C -4,1 C -6,6 C -7,9 C 0,2 C 75 % 72 % 5 % 1023,6 hPa 0,0 l/m 8,7 km/h (2 Bft) O-NO 0,00 h 0,6 UV-I -10,5 C -12,3 C 11,1 km/h (2 Bft)
23.03.2013 10:00 -6,1 C 7,3 C -4,5 C -6,3 C -8,0 C 0,0 C 73 % 70 % 0 % 1023,7 hPa 0,0 l/m 10,3 km/h (2 Bft) O-NO 0,00 h 1,0 UV-I -10,2 C -13,0 C 11,6 km/h (2 Bft)
23.03.2013 11:00 -5,4 C 7,3 C -2,5 C -4,9 C -6,2 C 0,5 C 71 % 66 % 13 % 1023,8 hPa 0,0 l/m 10,6 km/h (2 Bft) O-NO 0,00 h 1,4 UV-I -9,8 C -10,9 C 13,5 km/h (3 Bft)
23.03.2013 12:00 -4,7 C 7,3 C -1,0 C -2,9 C -4,2 C 1,8 C 67 % 58 % 46 % 1023,6 hPa 0,0 l/m 10,9 km/h (2 Bft) O-NO 0,00 h 2,1 UV-I -9,9 C -8,6 C 14,2 km/h (3 Bft)
23.03.2013 13:00 -4,2 C 7,2 C -1,3 C -2,0 C -3,1 C 2,2 C 61 % 55 % 57 % 1023,5 hPa 0,0 l/m 11,0 km/h (2 Bft) O-NO 0,08 h 1,8 UV-I -10,7 C -7,3 C 13,5 km/h (3 Bft)
23.03.2013 14:00 -4,1 C 7,1 C -2,7 C -3,8 C -5,4 C 0,3 C 54 % 54 % 8 % 1023,5 hPa 0,0 l/m 11,7 km/h (2 Bft) O-NO 0,00 h 1,0 UV-I -12,1 C -10,2 C 15,3 km/h (3 Bft)
23.03.2013 15:00 -3,9 C 7,1 C -2,7 C -3,7 C -5,0 C 0,3 C 50 % 51 % 8 % 1023,5 hPa 0,0 l/m 12,7 km/h (3 Bft) O-NO 0,00 h 0,5 UV-I -12,8 C -10,0 C 16,0 km/h (3 Bft)
23.03.2013 16:00 -3,7 C 7,2 C -2,7 C -3,5 C -5,0 C 0,3 C 49 % 51 % 8 % 1022,9 hPa 0,0 l/m 11,2 km/h (2 Bft) O-NO 0,00 h 0,2 UV-I -12,8 C -9,6 C 13,8 km/h (3 Bft)
23.03.2013 17:00 -4,0 C 7,2 C -3,4 C -4,2 C -6,1 C 0,1 C 51 % 54 % 2 % 1022,8 hPa 0,0 l/m 11,1 km/h (2 Bft) O-NO 0,00 h 0,0 UV-I -12,7 C -11,0 C 15,9 km/h (3 Bft)
23.03.2013 18:00 -4,7 C 7,2 C -4,7 C -5,7 C -9,2 C 0,0 C 51 % 56 % 0 % 1023,5 hPa 0,0 l/m 10,5 km/h (2 Bft) O-NO 0,00 h 0,0 UV-I -13,4 C -14,4 C 12,0 km/h (2 Bft)
23.03.2013 19:00 -5,7 C 7,1 C -5,8 C -6,9 C -10,4 C 0,0 C 54 % 60 % 0 % 1024,1 hPa 0,0 l/m 8,8 km/h (2 Bft) O-NO 0,00 h 0,0 UV-I -13,4 C -15,3 C 11,2 km/h (2 Bft)
23.03.2013 20:00 -6,4 C 7,1 C -6,5 C -7,8 C -12,1 C 0,0 C 56 % 62 % 0 % 1024,6 hPa 0,0 l/m 10,8 km/h (2 Bft) O-NO 0,00 h 0,0 UV-I -13,7 C -18,0 C 13,7 km/h (3 Bft)
23.03.2013 21:00 -7,0 C 7,2 C -7,2 C -8,4 C -12,0 C 0,0 C 58 % 64 % 0 % 1024,6 hPa 0,0 l/m 8,3 km/h (2 Bft) O-NO 0,00 h 0,0 UV-I -13,8 C -16,9 C 11,2 km/h (2 Bft)
23.03.2013 22:00 -7,6 C 7,1 C -7,6 C -8,9 C -12,1 C 0,0 C 61 % 66 % 0 % 1024,5 hPa 0,0 l/m 7,0 km/h (2 Bft) O-NO 0,00 h 0,0 UV-I -13,8 C -16,4 C 7,8 km/h (2 Bft)
23.03.2013 23:00 -8,2 C 7,1 C -8,2 C -9,6 C -13,2 C 0,0 C 63 % 68 % 0 % 1024,5 hPa 0,0 l/m 7,9 km/h (2 Bft) O-NO 0,00 h 0,0 UV-I -14,0 C -18,2 C 9,2 km/h (2 Bft)
24.03.2013 00:00 -8,7 C 7,1 C -8,7 C -10,2 C -13,1 C 0,0 C 65 % 69 % 0 % 1025,0 hPa 0,0 l/m 5,9 km/h (2 Bft) O-NO 0,00 h 0,0 UV-I -14,1 C -17,0 C 6,4 km/h (2 Bft)
24.03.2013 01:00 -9,4 C 7,1 C -9,4 C -11,0 C -14,3 C 0,0 C 66 % 70 % 0 % 1025,0 hPa 0,0 l/m 6,7 km/h (2 Bft) O-NO 0,00 h 0,0 UV-I -14,7 C -18,8 C 8,5 km/h (2 Bft)
24.03.2013 02:00 -9,9 C 7,0 C -9,9 C -11,2 C -13,6 C 0,0 C 67 % 71 % 0 % 1024,4 hPa 0,0 l/m 4,2 km/h (1 Bft) O-NO 0,00 h 0,0 UV-I -14,9 C -14,2 C 5,5 km/h (1 Bft)
24.03.2013 03:00 -10,2 C 7,0 C -10,1 C -11,9 C -15,2 C 0,0 C 68 % 72 % 0 % 1023,9 hPa 0,0 l/m 6,4 km/h (2 Bft) O-NO 0,00 h 0,0 UV-I -15,0 C -19,7 C 7,2 km/h (2 Bft)
24.03.2013 04:00 -10,5 C 7,0 C -10,4 C -11,8 C -14,3 C 0,0 C 69 % 73 % 0 % 1023,6 hPa 0,0 l/m 4,9 km/h (1 Bft) O-NO 0,00 h 0,0 UV-I -15,1 C -16,7 C 5,2 km/h (1 Bft)
24.03.2013 05:00 -10,9 C 7,0 C -10,8 C -11,8 C -13,6 C 0,0 C 69 % 73 % 0 % 1023,8 hPa 0,0 l/m 3,0 km/h (1 Bft) O-NO 0,00 h 0,0 UV-I -15,4 C -13,9 C 3,7 km/h (1 Bft)
24.03.2013 06:00 -11,2 C 7,0 C -11,1 C -11,9 C -13,2 C 0,0 C 71 % 74 % 0 % 1023,8 hPa 0,0 l/m 2,6 km/h (1 Bft) O-NO 0,00 h 0,0 UV-I -15,5 C -13,2 C 3,6 km/h (1 Bft)
24.03.2013 07:00 -9,9 C 7,0 C -9,5 C -8,8 C -8,8 C 1,2 C 68 % 70 % 31 % 1023,8 hPa 0,0 l/m 4,7 km/h (1 Bft) O-NO 0,00 h 0,0 UV-I -14,7 C -10,6 C 5,8 km/h (1 Bft)
24.03.2013 08:00 -8,7 C 6,9 C -8,1 C -7,4 C -7,4 C 1,4 C 65 % 67 % 36 % 1023,9 hPa 0,0 l/m 6,3 km/h (2 Bft) O-NO 0,00 h 0,2 UV-I -14,1 C -10,7 C 7,7 km/h (2 Bft)
24.03.2013 09:00 -7,4 C 7,0 C -5,1 C -7,4 C -8,6 C 0,1 C 61 % 58 % 4 % 1023,8 hPa 0,0 l/m 8,9 km/h (2 Bft) O-NO 0,00 h 0,5 UV-I -13,7 C -13,1 C 11,8 km/h (2 Bft)
24.03.2013 10:00 -5,7 C 6,9 C -4,3 C -5,5 C -6,5 C 0,2 C 56 % 55 % 5 % 1023,5 hPa 0,0 l/m 8,1 km/h (2 Bft) O-NO 0,00 h 0,9 UV-I -13,0 C -10,4 C 9,4 km/h (2 Bft)
24.03.2013 11:00 -4,2 C 6,9 C -1,3 C -3,2 C -4,2 C 1,0 C 50 % 48 % 27 % 1023,3 hPa 0,0 l/m 9,7 km/h (2 Bft) O-NO 0,00 h 1,4 UV-I -12,9 C -8,3 C 13,2 km/h (3 Bft)
24.03.2013 12:00 -2,8 C 6,9 C 0,8 C -0,7 C -1,6 C 2,1 C 47 % 42 % 56 % 1022,5 hPa 0,0 l/m 10,3 km/h (2 Bft) NO 0,00 h 2,1 UV-I -12,6 C -5,3 C 11,9 km/h (2 Bft)
24.03.2013 13:00 -1,9 C 7,0 C 0,3 C 0,4 C -0,4 C 2,3 C 49 % 47 % 61 % 1021,9 hPa 0,0 l/m 10,1 km/h (2 Bft) O-NO 0,00 h 1,6 UV-I -11,2 C -3,8 C 12,2 km/h (2 Bft)
24.03.2013 14:00 -1,7 C 7,0 C -1,1 C 0,2 C -0,8 C 1,9 C 49 % 51 % 49 % 1021,5 hPa 0,0 l/m 11,1 km/h (2 Bft) O 0,00 h 1,2 UV-I -10,8 C -4,5 C 13,4 km/h (3 Bft)
24.03.2013 15:00 -1,5 C 7,0 C -1,3 C -0,8 C -1,8 C 0,7 C 50 % 54 % 19 % 1021,2 hPa 0,0 l/m 12,7 km/h (3 Bft) O-NO 0,00 h 0,5 UV-I -10,5 C -6,2 C 14,9 km/h (3 Bft)
24.03.2013 16:00 -1,7 C 6,9 C -1,4 C -1,4 C -2,6 C 0,4 C 52 % 56 % 9 % 1021,0 hPa 0,0 l/m 11,3 km/h (2 Bft) O-NO 0,00 h 0,1 UV-I -10,2 C -6,8 C 12,7 km/h (3 Bft)
24.03.2013 17:00 -2,2 C 6,9 C -2,2 C -2,7 C -4,6 C 0,0 C 55 % 59 % 0 % 1020,9 hPa 0,0 l/m 10,5 km/h (2 Bft) O-NO 0,00 h 0,0 UV-I -10,0 C -9,0 C 13,6 km/h (3 Bft)
24.03.2013 18:00 -2,9 C 6,9 C -3,1 C -3,9 C -7,2 C 0,0 C 57 % 62 % 0 % 1020,9 hPa 0,0 l/m 10,1 km/h (2 Bft) O-NO 0,00 h 0,0 UV-I -10,1 C -11,9 C 12,1 km/h (2 Bft)
24.03.2013 19:00 -3,6 C 7,0 C -3,9 C -4,8 C -8,4 C 0,0 C 60 % 66 % 0 % 1021,2 hPa 0,0 l/m 9,4 km/h (2 Bft) O-NO 0,00 h 0,0 UV-I -10,2 C -13,1 C 11,3 km/h (2 Bft)
24.03.2013 20:00 -4,0 C 7,0 C -4,4 C -5,4 C -9,3 C 0,0 C 61 % 66 % 0 % 1021,7 hPa 0,0 l/m 11,0 km/h (2 Bft) O-NO 0,00 h 0,0 UV-I -10,4 C -14,7 C 13,4 km/h (3 Bft)
24.03.2013 21:00 -4,5 C 7,0 C -4,7 C -5,9 C -9,8 C 0,0 C 63 % 69 % 0 % 1021,7 hPa 0,0 l/m 11,1 km/h (2 Bft) O-NO 0,00 h 0,0 UV-I -10,3 C -15,4 C 12,2 km/h (2 Bft)
24.03.2013 22:00 -5,0 C 7,0 C -5,2 C -6,2 C -9,8 C 0,0 C 67 % 72 % 0 % 1021,6 hPa 0,0 l/m 9,2 km/h (2 Bft) O-NO 0,00 h 0,0 UV-I -10,2 C -14,8 C 10,7 km/h (2 Bft)
24.03.2013 23:00 -5,4 C 7,0 C -5,6 C -6,6 C -10,1 C 0,0 C 69 % 73 % 0 % 1021,7 hPa 0,0 l/m 8,4 km/h (2 Bft) O-NO 0,00 h 0,0 UV-I -10,2 C -14,8 C 8,2 km/h (2 Bft)
Min-Datum _ 24.03.13 24.03.13 24.03.13 24.03.13 24.03.13 18.03.13 24.03.13 24.03.13 18.03.13 19.03.13 - 19.03.13 - - 18.03.13 24.03.13 24.03.13 18.03.13
_ Min-Zeit 06:05 08:05 06:15 06:20 03:40 00:00 12:41 12:05 00:00 01:15 - 19:25 - - 00:00 06:05 03:40 00:00
Minimum _ -11,3 C 6,9 C -11,2 C -12,2 C -15,8 C 0,0 C 46 % 40 % 0 % 994,2 hPa - 0,0 km/h (0 Bft) - - 0,0 UV-I -15,7 C -21,1 C 0,0 km/h (0 Bft)
Max-Datum _ 20.03.13 20.03.13 20.03.13 20.03.13 20.03.13 20.03.13 21.03.13 19.03.13 20.03.13 24.03.13 19.03.13 23.03.13 - 20.03.13 23.03.13 20.03.13 20.03.13 24.03.13
_ Max-Zeit 15:00 17:30 13:25 14:35 14:35 13:05 02:55 20:30 09:55 00:15 00:00 15:30 - 13:00 12:15 14:55 14:35 15:15
Maximum _ 3,9 C 8,1 C 5,6 C 9,3 C 9,3 C 6,3 C 91 % 93 % 100 % 1025,2 hPa 1,4 l/m 14,8 km/h
O-NO (3 Bft)
- 0,32 h 2,2 UV-I 0,1 C 9,3 C 30,4 km/h
O-NO (5 Bft)
Durchschnitt _ -2,4 C 7,6 C -1,4 C -2,0 C -2,7 C 0,7 C 79 % 82 % 14 % 1012,5 hPa #15,8 l/m 4,3 km/h (1 Bft) O-NO #7:45 h 0,7 UV-I -5,7 C -4,3 C 5,4 km/h (1 Bft)
2013 www.wetterstation-wechselburg.de